Time;durP1;ratioP1;P1;durP2;ratioP2;P2;SDS_P1;SDS_P2;PMS_P1;PMS_P2;Temp;Humidity;BMP_temperature;BMP_pressure;BME280_temperature;BME280_humidity;BME280_pressure;Samples;Min_cycle;Max_cycle;Signal;HPM_P1;HPM_P2
2024/04/18 00:06:40;;;;;;;0.00;0.00;;;;;;;5.57;69.31;100706.88;16681267;26;20000;-54
2024/04/18 00:14:25;;;;;;;0.00;0.00;;;;;;;5.37;69.99;100703.88;16681535;26;20019;-52
2024/04/18 00:22:23;;;;;;;0.22;0.22;;;;;;;5.27;69.72;100703.25;16680616;26;20000;-53
2024/04/18 00:30:11;;;;;;;0.20;0.20;;;;;;;4.74;70.08;100707.53;16680188;26;20039;-56
2024/04/18 00:38:02;;;;;;;0.00;0.00;;;;;;;4.92;69.28;100709.97;16679097;26;20060;-53
2024/04/18 00:45:50;;;;;;;0.00;0.00;;;;;;;4.43;71.11;100713.66;16685343;26;20091;-52
2024/04/18 00:53:32;;;;;;;0.00;0.00;;;;;;;4.65;70.42;100717.38;16692011;26;20004;-52
2024/04/18 01:01:28;;;;;;;0.00;0.00;;;;;;;4.56;70.13;100719.22;16691569;26;20468;-53
2024/04/18 01:09:09;;;;;;;0.00;0.00;;;;;;;4.36;70.55;100723.28;16692207;26;20015;-53
2024/04/18 01:16:46;;;;;;;0.00;0.00;;;;;;;4.40;70.95;100721.13;16693081;26;19996;-53
2024/04/18 01:24:25;;;;;;;0.00;0.00;;;;;;;4.30;71.00;100740.75;16692407;26;20463;-51
2024/04/18 01:32:07;;;;;;;0.00;0.00;;;;;;;4.35;70.97;100735.75;16685354;26;20008;-56
2024/04/18 01:39:43;;;;;;;0.00;0.00;;;;;;;4.52;70.07;100733.91;16695625;26;19996;-53
2024/04/18 01:47:20;;;;;;;0.10;0.10;;;;;;;4.43;71.32;100744.69;16689705;26;20103;-55
2024/04/18 01:55:18;;;;;;;0.00;0.00;;;;;;;4.54;71.15;100749.66;16685739;26;20004;-52
2024/04/18 02:02:57;;;;;;;0.00;0.00;;;;;;;4.47;71.39;100754.00;16686812;26;20012;-51
2024/04/18 02:10:52;;;;;;;0.00;0.00;;;;;;;3.93;72.75;100757.22;16676141;26;20005;-55
2024/04/18 02:18:48;;;;;;;0.00;0.00;;;;;;;3.68;74.11;100760.84;16671993;26;20005;-51
2024/04/18 02:26:23;;;;;;;0.13;0.13;;;;;;;3.76;73.21;100768.84;16686170;26;20447;-53
2024/04/18 02:34:01;;;;;;;0.00;0.00;;;;;;;3.58;73.69;100775.13;16670899;26;20458;-52
2024/04/18 02:41:37;;;;;;;0.00;0.00;;;;;;;3.86;72.14;100777.47;16577166;26;19997;-55
2024/04/18 02:49:35;;;;;;;0.47;0.47;;;;;;;3.63;73.00;100787.91;16598658;26;20000;-52
2024/04/18 02:57:10;;;;;;;0.20;0.20;;;;;;;3.76;72.79;100782.94;16685862;26;20040;-53
2024/04/18 03:04:49;;;;;;;0.00;0.00;;;;;;;3.53;73.20;100792.53;16666719;26;20012;-55
2024/04/18 03:12:26;;;;;;;0.00;0.00;;;;;;;3.52;72.56;100796.19;16687435;26;20654;-54
2024/04/18 03:20:20;;;;;;;0.00;0.00;;;;;;;3.29;73.53;100802.09;16679726;21;20013;-47
2024/04/18 03:28:10;;;;;;;0.10;0.10;;;;;;;2.77;75.06;100770.41;16663887;26;20050;-46
2024/04/18 03:35:48;;;;;;;0.00;0.00;;;;;;;3.23;73.98;100809.88;16689015;26;20190;-49
2024/04/18 03:43:23;;;;;;;0.00;0.00;;;;;;;3.25;73.05;100816.66;16680535;26;20011;-46
2024/04/18 03:51:01;;;;;;;0.00;0.00;;;;;;;3.34;72.74;100820.19;16683888;26;20011;-46
2024/04/18 03:58:57;;;;;;;0.00;0.00;;;;;;;3.27;73.03;100830.63;16680642;26;20016;-49
2024/04/18 04:06:35;;;;;;;0.00;0.00;;;;;;;3.13;72.30;100833.03;16649331;26;20011;-46
2024/04/18 04:14:11;;;;;;;0.22;0.15;;;;;;;3.20;72.54;100845.50;16680588;26;20000;-46
2024/04/18 04:22:04;;;;;;;0.00;0.00;;;;;;;3.14;72.61;100850.63;16680229;26;20036;-46
2024/04/18 04:29:39;;;;;;;0.05;0.05;;;;;;;3.25;72.54;100863.59;16680406;26;20334;-46
2024/04/18 04:37:19;;;;;;;0.00;0.00;;;;;;;3.14;73.01;100869.19;16685747;26;20000;-50
2024/04/18 04:44:55;;;;;;;0.00;0.00;;;;;;;2.98;73.77;100881.34;16679480;26;20011;-47
2024/04/18 04:52:42;;;;;;;0.55;0.30;;;;;;;3.05;75.00;100893.00;16652408;26;20001;-45
2024/04/18 05:00:25;;;;;;;0.00;0.00;;;;;;;3.47;73.60;100899.34;16678130;26;20008;-45
2024/04/18 05:08:09;;;;;;;0.60;0.60;;;;;;;3.76;73.05;100907.72;16678131;26;20024;-50
2024/04/18 05:15:47;;;;;;;0.00;0.00;;;;;;;3.84;74.49;100909.56;16677712;26;20410;-46
2024/04/18 05:23:40;;;;;;;0.00;0.00;;;;;;;3.96;74.77;100916.22;16663551;26;20089;-45
2024/04/18 05:31:15;;;;;;;0.00;0.00;;;;;;;4.78;71.66;100940.22;16680061;26;20028;-56
2024/04/18 05:38:53;;;;;;;0.40;0.40;;;;;;;7.08;63.52;100954.81;16693019;26;20454;-49
2024/04/18 05:46:29;;;;;;;0.35;0.25;;;;;;;9.24;57.34;100963.00;16688482;26;20052;-48
2024/04/18 05:54:08;;;;;;;0.00;0.00;;;;;;;7.40;61.34;100965.16;16685012;26;20008;-46
2024/04/18 06:02:05;;;;;;;0.00;0.00;;;;;;;8.41;59.34;100963.53;16684748;26;20054;-46
2024/04/18 06:09:55;;;;;;;0.15;0.15;;;;;;;9.49;54.68;100969.53;16684125;26;20011;-46
2024/04/18 06:17:30;;;;;;;0.00;0.00;;;;;;;9.14;55.34;100974.88;16669467;26;20000;-47
2024/04/18 06:25:09;;;;;;;0.00;0.00;;;;;;;10.18;53.27;100993.56;16683569;26;20765;-49
2024/04/18 06:32:46;;;;;;;0.00;0.00;;;;;;;11.49;49.95;101001.13;16670842;26;20019;-50
2024/04/18 06:40:24;;;;;;;0.00;0.00;;;;;;;12.30;46.71;100997.16;16689450;26;20320;-46
2024/04/18 06:48:00;;;;;;;0.38;0.20;;;;;;;12.09;48.96;101009.06;16683441;26;20039;-48
2024/04/18 06:55:39;;;;;;;2.40;0.90;;;;;;;10.03;54.27;101018.91;16679870;26;20004;-45
2024/04/18 07:03:15;;;;;;;0.22;0.22;;;;;;;10.42;51.69;101021.75;16682325;26;20374;-48
2024/04/18 07:11:04;;;;;;;0.00;0.00;;;;;;;11.24;50.53;101020.59;16681451;26;20023;-51
2024/04/18 07:18:40;;;;;;;0.00;0.00;;;;;;;11.53;46.89;101031.13;16669187;26;20011;-51
2024/04/18 07:26:19;;;;;;;0.22;0.22;;;;;;;13.24;41.93;101034.03;16688907;26;20004;-48
2024/04/18 07:33:55;;;;;;;0.10;0.10;;;;;;;13.71;41.94;101037.94;16693339;26;20000;-47
2024/04/18 07:41:33;;;;;;;0.10;0.10;;;;;;;14.44;40.88;101044.34;16688274;26;20000;-47
2024/04/18 07:49:10;;;;;;;0.00;0.00;;;;;;;14.73;42.10;101042.72;16696745;26;20015;-53
2024/04/18 07:56:48;;;;;;;0.17;0.13;;;;;;;15.50;38.45;101048.13;16686586;26;20035;-45
2024/04/18 08:04:23;;;;;;;0.17;0.17;;;;;;;14.14;40.32;101057.81;16686300;26;20269;-45
2024/04/18 08:12:02;;;;;;;0.10;0.03;;;;;;;14.50;43.01;101065.91;16679659;26;20015;-48
2024/04/18 08:19:38;;;;;;;0.10;0.05;;;;;;;13.25;43.24;101062.66;16692768;26;20004;-49
2024/04/18 08:27:16;;;;;;;0.00;0.00;;;;;;;12.18;43.31;101067.81;16682453;26;20090;-45
2024/04/18 08:34:52;;;;;;;0.00;0.00;;;;;;;13.97;38.81;101061.09;16683540;26;20017;-49
2024/04/18 08:42:31;;;;;;;0.47;0.47;;;;;;;14.34;38.17;101058.38;16692516;26;20004;-46
2024/04/18 08:50:07;;;;;;;0.00;0.00;;;;;;;13.97;39.18;101062.97;16679871;26;20595;-53
2024/04/18 08:57:51;;;;;;;0.00;0.00;;;;;;;13.21;38.81;101058.72;16676435;26;20370;-48
2024/04/18 09:05:39;;;;;;;0.00;0.00;;;;;;;12.70;39.55;101055.13;16669703;26;19996;-48
2024/04/18 09:13:22;;;;;;;0.68;0.30;;;;;;;13.91;38.73;101053.09;16692426;26;20001;-47
2024/04/18 09:21:01;;;;;;;0.00;0.00;;;;;;;13.76;37.34;101064.25;16785848;21;20019;-48
2024/04/18 09:28:40;;;;;;;0.17;0.17;;;;;;;13.22;38.67;101055.00;16807946;26;20492;-48
2024/04/18 09:36:18;;;;;;;0.00;0.00;;;;;;;11.96;42.42;101069.09;16839027;26;20092;-51
2024/04/18 09:44:09;;;;;;;0.30;0.30;;;;;;;11.39;41.57;101065.25;16840933;26;20403;-52
2024/04/18 09:51:48;;;;;;;0.10;0.10;;;;;;;11.65;41.63;101067.06;16793643;26;20508;-48
2024/04/18 09:59:30;;;;;;;0.00;0.00;;;;;;;11.51;39.55;101055.50;16818479;26;20004;-51
2024/04/18 10:07:10;;;;;;;0.00;0.00;;;;;;;12.04;38.84;101062.69;16811424;26;20000;-51
2024/04/18 10:14:51;;;;;;;0.00;0.00;;;;;;;10.79;41.81;101070.56;16786676;26;20015;-48
2024/04/18 10:22:28;;;;;;;0.00;0.00;;;;;;;11.59;41.06;101070.59;16798178;26;20003;-48
2024/04/18 10:30:09;;;;;;;0.00;0.00;;;;;;;11.91;41.39;101061.66;16803056;26;20003;-52
2024/04/18 10:37:51;;;;;;;0.00;0.00;;;;;;;12.82;38.26;101055.25;16783262;26;20000;-50
2024/04/18 10:45:29;;;;;;;0.00;0.00;;;;;;;12.33;41.44;101053.25;16830820;26;19999;-52
2024/04/18 10:53:05;;;;;;;0.05;0.05;;;;;;;13.00;41.88;101067.97;16884763;26;19999;-50
2024/04/18 11:00:43;;;;;;;0.00;0.00;;;;;;;13.16;38.80;101059.38;16861819;26;20002;-50
2024/04/18 11:08:19;;;;;;;0.00;0.00;;;;;;;13.48;39.85;101068.25;16861999;26;20022;-53
2024/04/18 11:15:57;;;;;;;0.00;0.00;;;;;;;12.36;38.44;101068.97;16908475;26;20515;-49
2024/04/18 11:23:33;;;;;;;0.00;0.00;;;;;;;11.56;42.84;101079.91;16907440;26;19994;-50
2024/04/18 11:31:11;;;;;;;0.40;0.25;;;;;;;10.96;42.95;101082.59;16827952;26;19996;-50
2024/04/18 11:38:46;;;;;;;1.30;0.20;;;;;;;11.11;42.19;101077.03;16846759;26;20010;-50
2024/04/18 11:46:25;;;;;;;0.00;0.00;;;;;;;10.56;42.65;101070.09;16898639;26;19998;-51
2024/04/18 11:54:01;;;;;;;0.00;0.00;;;;;;;11.81;42.45;101063.94;16874652;26;20009;-49
2024/04/18 12:01:48;;;;;;;0.00;0.00;;;;;;;14.41;36.15;101048.34;16913295;26;20138;-49
2024/04/18 12:09:30;;;;;;;0.00;0.00;;;;;;;15.73;32.76;101050.88;16819117;26;20490;-51
2024/04/18 12:17:10;;;;;;;0.00;0.00;;;;;;;14.52;35.99;101050.28;16894582;26;20003;-52
2024/04/18 12:24:53;;;;;;;0.00;0.00;;;;;;;12.55;37.95;101045.69;16804036;26;20020;-48
2024/04/18 12:32:35;;;;;;;0.00;0.00;;;;;;;15.73;36.42;101050.06;16793089;26;20004;-48
2024/04/18 12:40:12;;;;;;;0.00;0.00;;;;;;;15.75;32.50;101051.44;16870826;26;20002;-53
2024/04/18 12:47:57;;;;;;;0.52;0.52;;;;;;;16.17;33.22;101047.72;16911955;26;20010;-49
2024/04/18 12:55:35;;;;;;;0.00;0.00;;;;;;;14.37;36.14;101035.53;16915493;26;20003;-51
2024/04/18 13:03:14;;;;;;;0.00;0.00;;;;;;;15.36;34.99;101035.91;16919980;26;20525;-52
2024/04/18 13:10:55;;;;;;;0.00;0.00;;;;;;;14.55;36.04;101035.50;16890115;26;20197;-51
2024/04/18 13:18:36;;;;;;;0.00;0.00;;;;;;;12.14;38.08;101049.59;16911502;26;20003;-48
2024/04/18 13:26:11;;;;;;;0.00;0.00;;;;;;;14.15;36.99;101033.28;16912638;26;19999;-49
2024/04/18 13:33:52;;;;;;;0.00;0.00;;;;;;;15.34;32.36;101022.63;16813744;26;20004;-49
2024/04/18 13:41:27;;;;;;;0.00;0.00;;;;;;;15.26;33.16;101015.69;16800244;26;20069;-51
2024/04/18 13:49:07;;;;;;;0.10;0.10;;;;;;;14.99;35.17;101014.47;16864026;26;20006;-54
2024/04/18 13:57:02;;;;;;;0.00;0.00;;;;;;;14.85;34.01;101019.25;16902801;26;19999;-49
2024/04/18 14:05:01;;;;;;;0.00;0.00;;;;;;;14.25;36.52;101011.97;16880818;26;20018;-54
2024/04/18 14:12:39;;;;;;;0.00;0.00;;;;;;;13.37;34.99;100998.03;16791638;26;20024;-53
2024/04/18 14:20:27;;;;;;;0.00;0.00;;;;;;;12.37;35.91;100995.25;16818612;26;20484;-50
2024/04/18 14:28:03;;;;;;;0.00;0.00;;;;;;;12.59;37.50;100988.50;16835307;26;20341;-51
2024/04/18 14:35:47;;;;;;;0.00;0.00;;;;;;;13.89;35.49;100988.53;16854329;26;20399;-49
2024/04/18 14:43:22;;;;;;;0.00;0.00;;;;;;;14.13;33.96;100985.97;16811221;26;19999;-48
2024/04/18 14:51:01;;;;;;;0.00;0.00;;;;;;;13.90;33.08;100990.22;16849635;26;20015;-48
2024/04/18 14:58:56;;;;;;;0.00;0.00;;;;;;;12.92;34.30;100979.34;16806614;26;20088;-49
2024/04/18 15:06:35;;;;;;;0.00;0.00;;;;;;;12.54;35.63;100984.78;16819817;26;20414;-49
2024/04/18 15:14:17;;;;;;;0.00;0.00;;;;;;;11.81;35.33;100948.31;16824254;26;20008;-50
2024/04/18 15:21:55;;;;;;;0.00;0.00;;;;;;;12.46;36.60;100975.13;16684709;21;20016;-47
2024/04/18 15:29:31;;;;;;;0.00;0.00;;;;;;;12.85;37.45;100968.59;16709350;26;20000;-52
2024/04/18 15:37:28;;;;;;;0.08;0.08;;;;;;;11.95;36.77;100978.69;16777502;26;20159;-49
2024/04/18 15:45:08;;;;;;;0.00;0.00;;;;;;;12.33;36.49;100977.88;16780519;26;20075;-47
2024/04/18 15:52:46;;;;;;;0.00;0.00;;;;;;;12.27;35.41;100968.81;16780728;26;20054;-52
2024/04/18 16:00:37;;;;;;;0.10;0.10;;;;;;;12.30;34.17;100972.91;16749093;26;19999;-49
2024/04/18 16:08:15;;;;;;;0.00;0.00;;;;;;;12.53;33.89;100973.19;16766869;26;20015;-50
2024/04/18 16:15:50;;;;;;;0.00;0.00;;;;;;;12.57;33.78;100965.50;16773450;26;20027;-52
2024/04/18 16:23:46;;;;;;;0.00;0.00;;;;;;;12.34;33.94;100980.34;16780182;26;20463;-46
2024/04/18 16:31:41;;;;;;;0.00;0.00;;;;;;;11.87;36.05;100977.06;16779062;26;20463;-49
2024/04/18 16:39:28;;;;;;;0.43;0.43;;;;;;;12.07;36.81;100976.97;16702931;26;20415;-46
2024/04/18 16:47:08;;;;;;;0.57;0.40;;;;;;;12.07;36.32;100960.00;16673854;26;20012;-49
2024/04/18 16:54:47;;;;;;;0.00;0.00;;;;;;;11.55;36.85;100954.59;16766717;26;20860;-46
2024/04/18 17:02:42;;;;;;;0.00;0.00;;;;;;;11.42;37.79;100958.16;16764797;26;20402;-46
2024/04/18 17:10:21;;;;;;;0.00;0.00;;;;;;;11.38;36.80;100958.78;16777833;26;20509;-45
2024/04/18 17:18:18;;;;;;;0.00;0.00;;;;;;;11.37;36.76;100957.94;16777597;26;20007;-53
2024/04/18 17:25:56;;;;;;;0.00;0.00;;;;;;;11.56;36.16;100952.72;16780154;26;19996;-45
2024/04/18 17:33:31;;;;;;;0.00;0.00;;;;;;;11.10;37.45;100957.16;16756861;26;20057;-46
2024/04/18 17:41:10;;;;;;;0.17;0.17;;;;;;;11.10;37.71;100954.47;16772862;26;19999;-46
2024/04/18 17:48:46;;;;;;;0.00;0.00;;;;;;;11.09;37.83;100958.19;16776583;26;19995;-47
2024/04/18 17:56:23;;;;;;;0.00;0.00;;;;;;;10.84;39.44;100957.19;16787246;26;20399;-48
2024/04/18 18:03:58;;;;;;;0.00;0.00;;;;;;;11.07;39.46;100959.44;16786736;26;20010;-51
2024/04/18 18:11:36;;;;;;;0.20;0.20;;;;;;;10.77;41.42;100962.56;16755606;26;20018;-45
2024/04/18 18:19:11;;;;;;;0.00;0.00;;;;;;;10.73;41.80;100962.13;16786186;26;20004;-49
2024/04/18 18:26:49;;;;;;;0.38;0.38;;;;;;;10.62;42.52;100949.31;16787971;26;20004;-48
2024/04/18 18:34:25;;;;;;;0.00;0.00;;;;;;;10.67;40.48;100967.47;16786905;26;20389;-47
2024/04/18 18:42:02;;;;;;;0.47;0.45;;;;;;;10.52;40.62;100970.34;16786646;26;20018;-46
2024/04/18 18:49:40;;;;;;;0.00;0.00;;;;;;;9.82;42.92;100988.47;16789528;26;20007;-47
2024/04/18 18:57:18;;;;;;;0.00;0.00;;;;;;;9.77;44.20;100990.91;16784955;26;20057;-47
2024/04/18 19:04:57;;;;;;;0.00;0.00;;;;;;;10.19;45.16;100999.75;16784995;26;20077;-50
2024/04/18 19:12:36;;;;;;;0.10;0.10;;;;;;;9.86;48.29;100999.63;16783946;26;20036;-48
2024/04/18 19:20:11;;;;;;;0.00;0.00;;;;;;;9.75;48.91;100997.53;16783300;26;19999;-50
2024/04/18 19:27:49;;;;;;;0.00;0.00;;;;;;;10.18;48.87;100992.75;16782997;26;20010;-50
2024/04/18 19:35:24;;;;;;;0.00;0.00;;;;;;;10.28;50.06;100985.16;16783132;26;20014;-46
2024/04/18 19:43:03;;;;;;;0.28;0.28;;;;;;;10.13;51.59;100969.22;16782691;26;20011;-51
2024/04/18 19:50:39;;;;;;;0.00;0.00;;;;;;;10.17;52.24;100956.22;16785162;26;20072;-52
2024/04/18 19:58:35;;;;;;;0.10;0.10;;;;;;;9.82;52.30;100955.47;16780925;26;20374;-47
2024/04/18 20:06:10;;;;;;;0.00;0.00;;;;;;;9.60;52.58;100960.94;16780846;26;20100;-49
2024/04/18 20:14:04;;;;;;;0.10;0.08;;;;;;;9.49;53.83;100961.50;16780158;26;20003;-45
2024/04/18 20:21:39;;;;;;;0.17;0.15;;;;;;;8.76;56.53;100952.94;16779606;26;20007;-48
2024/04/18 20:29:19;;;;;;;0.00;0.00;;;;;;;9.08;56.14;100959.59;16779720;26;20003;-47
2024/04/18 20:36:54;;;;;;;0.00;0.00;;;;;;;8.77;57.49;100964.50;16778885;26;20043;-48
2024/04/18 20:44:32;;;;;;;0.00;0.00;;;;;;;8.33;59.50;100965.47;16778186;26;20008;-47
2024/04/18 20:52:08;;;;;;;0.52;0.20;;;;;;;8.59;59.33;100957.75;16779922;26;20074;-47
2024/04/18 21:00:11;;;;;;;0.00;0.00;;;;;;;8.55;59.50;100961.81;16779104;26;20004;-45
2024/04/18 21:07:47;;;;;;;0.43;0.43;;;;;;;8.04;61.15;100953.03;16788605;26;20025;-48
2024/04/18 21:15:25;;;;;;;0.00;0.00;;;;;;;8.24;60.51;100959.41;16778132;26;19999;-47
2024/04/18 21:23:01;;;;;;;0.20;0.20;;;;;;;8.35;60.64;100950.91;16786688;26;20043;-49
2024/04/18 21:30:39;;;;;;;0.85;0.75;;;;;;;8.54;60.70;100944.13;16757111;26;20011;-53
2024/04/18 21:38:14;;;;;;;0.00;0.00;;;;;;;8.32;60.72;100940.59;16787385;26;20076;-48
2024/04/18 21:45:53;;;;;;;0.00;0.00;;;;;;;7.73;63.09;100946.06;16790334;26;20030;-55
2024/04/18 21:53:31;;;;;;;0.00;0.00;;;;;;;7.52;63.76;100936.16;16787354;26;20003;-53
2024/04/18 22:01:10;;;;;;;0.00;0.00;;;;;;;7.93;62.73;100927.63;16785548;26;20014;-51
2024/04/18 22:08:45;;;;;;;0.10;0.10;;;;;;;8.06;62.53;100914.38;16787084;26;20067;-51
2024/04/18 22:16:23;;;;;;;0.20;0.20;;;;;;;7.49;63.85;100925.84;16783260;26;20083;-54
2024/04/18 22:23:58;;;;;;;0.00;0.00;;;;;;;7.57;64.58;100922.25;16785584;26;20515;-47
2024/04/18 22:31:36;;;;;;;0.00;0.00;;;;;;;7.06;66.41;100909.66;16784689;26;20011;-51
2024/04/18 22:39:15;;;;;;;0.00;0.00;;;;;;;7.10;66.48;100907.44;16785429;26;20078;-51
2024/04/18 22:46:52;;;;;;;0.00;0.00;;;;;;;6.91;67.22;100908.81;16789805;26;20086;-51
2024/04/18 22:54:27;;;;;;;0.00;0.00;;;;;;;6.89;67.93;100897.47;16785443;26;20023;-50
2024/04/18 23:02:24;;;;;;;0.00;0.00;;;;;;;6.92;67.89;100890.94;16784411;26;20015;-54
2024/04/18 23:10:01;;;;;;;0.00;0.00;;;;;;;6.82;67.94;100881.38;16784773;26;20000;-53
2024/04/18 23:17:41;;;;;;;0.10;0.10;;;;;;;6.86;68.71;100884.50;16784778;26;20014;-53
2024/04/18 23:25:16;;;;;;;0.00;0.00;;;;;;;7.02;67.54;100868.31;16785983;26;20000;-51
2024/04/18 23:32:54;;;;;;;0.00;0.00;;;;;;;7.09;67.35;100863.91;16785395;26;20117;-54
2024/04/18 23:40:29;;;;;;;0.00;0.00;;;;;;;6.74;69.22;100853.94;16782702;26;20015;-51
2024/04/18 23:48:08;;;;;;;0.00;0.00;;;;;;;6.93;68.27;100848.06;16787941;26;20339;-51
2024/04/18 23:55:43;;;;;;;0.13;0.13;;;;;;;7.14;67.91;100844.69;16787649;26;20464;-50
